Time;durP1;ratioP1;P1;durP2;ratioP2;P2;SDS_P1;SDS_P2;PMS_P1;PMS_P2;Temp;Humidity;BMP_temperature;BMP_pressure;BME280_temperature;BME280_humidity;BME280_pressure;Samples;Min_cycle;Max_cycle;Signal;HPM_P1;HPM_P2
2024/02/28 00:02:18;;;;;;;;;;;;;;;-147.86;100.00;-253.94;102832;1295;600133;-49
2024/02/28 00:04:47;;;;;;;22.50;6.40;;;;;;;-147.86;100.00;-12265.78;105100;1269;59728;-48
2024/02/28 00:07:15;;;;;;;16.90;5.90;;;;;;;-147.86;100.00;-12655.64;104877;1263;59309;-49
2024/02/28 00:09:42;;;;;;;22.90;6.70;;;;;;;-147.86;100.00;-12969.44;104851;1270;71065;-50
2024/02/28 01:02:32;;;;;;;;;;;;;;;-147.86;100.00;-12013.27;102631;1291;601361;-53
2024/02/28 01:05:00;;;;;;;8.50;3.80;;;;;;;-147.86;100.00;-17609.17;104836;1269;59292;-54
2024/02/28 01:07:27;;;;;;;11.10;3.80;;;;;;;-147.86;100.00;-17609.17;104825;1266;59392;-50
2024/02/28 01:09:55;;;;;;;11.70;3.90;;;;;;;-147.86;100.00;-17609.17;104822;1270;70940;-54
2024/02/28 01:12:23;;;;;;;13.20;3.80;;;;;;;-147.86;100.00;-17609.17;105454;1262;63140;-51
2024/02/28 01:14:52;;;;;;;23.70;4.60;;;;;;;-147.86;100.00;-17609.17;105579;1256;71387;-55
2024/02/28 01:17:20;;;;;;;15.60;3.60;;;;;;;-147.86;100.00;-17609.17;105513;1257;257547;-52
2024/02/28 01:19:48;;;;;;;8.10;3.60;;;;;;;-147.86;100.00;-17609.17;105669;1253;59591;-49
2024/02/28 01:22:16;;;;;;;20.40;4.80;;;;;;;-147.86;100.00;-17609.17;105702;1253;70972;-50
2024/02/28 01:24:44;;;;;;;14.30;3.70;;;;;;;-147.86;100.00;-17609.17;105645;1257;65004;-52
2024/02/28 01:27:12;;;;;;;11.40;3.50;;;;;;;-147.86;100.00;-17609.17;105740;1257;72624;-54
2024/02/28 01:29:40;;;;;;;8.60;3.30;;;;;;;-147.86;100.00;-17609.17;105833;1257;59747;-50
2024/02/28 01:32:08;;;;;;;14.50;4.10;;;;;;;-147.86;100.00;-17609.17;105844;1253;59646;-52
2024/02/28 01:34:36;;;;;;;16.60;4.00;;;;;;;-147.86;100.00;-17609.17;105807;1257;70929;-49
2024/02/28 01:37:04;;;;;;;11.80;3.80;;;;;;;-147.86;100.00;-17609.17;105741;1254;63622;-51
2024/02/28 01:39:32;;;;;;;9.70;3.50;;;;;;;-147.86;100.00;-17609.17;105683;1254;72573;-51
2024/02/28 01:42:00;;;;;;;14.00;3.30;;;;;;;-147.86;100.00;-17609.17;105681;1257;60817;-55
2024/02/28 01:44:28;;;;;;;11.90;3.40;;;;;;;-147.86;100.00;-17609.17;105735;1253;59557;-52
2024/02/28 01:46:58;;;;;;;11.50;3.30;;;;;;;-147.86;100.00;-17609.17;105746;1257;71867;-46
2024/02/28 01:49:26;;;;;;;11.40;3.90;;;;;;;-147.86;100.00;-17609.17;105869;1253;64047;-52
2024/02/28 01:51:54;;;;;;;9.10;3.60;;;;;;;-147.86;100.00;-17609.17;105676;1257;72621;-53
2024/02/28 01:54:22;;;;;;;7.50;3.00;;;;;;;-147.86;100.00;-17597.79;105703;1254;59721;-52
2024/02/28 01:56:50;;;;;;;15.80;3.60;;;;;;;-147.86;100.00;-17558.19;105715;1258;59655;-50
2024/02/28 01:59:18;;;;;;;17.40;3.20;;;;;;;-147.86;100.00;-17480.03;105721;1253;71809;-54
2024/02/28 02:01:45;;;;;;;15.30;3.10;;;;;;;-147.86;100.00;-17411.02;105563;1253;64473;-51
2024/02/28 02:04:13;;;;;;;8.90;3.30;;;;;;;-147.86;100.00;-17311.27;105660;1258;71419;-54
2024/02/28 02:06:42;;;;;;;17.50;4.00;;;;;;;-147.86;100.00;-17205.63;105611;1254;61077;-49
2024/02/28 02:09:10;;;;;;;19.70;5.00;;;;;;;-147.86;100.00;-17098.45;105688;1253;59968;-53
2024/02/28 02:11:39;;;;;;;21.00;5.00;;;;;;;-147.86;100.00;-16724.45;105661;1253;72980;-52
2024/02/28 02:14:06;;;;;;;21.70;5.70;;;;;;;-147.86;100.00;-16224.32;105684;1253;63345;-53
2024/02/28 02:16:34;;;;;;;12.20;5.70;;;;;;;-147.86;100.00;-15459.54;105680;1256;70956;-50
2024/02/28 02:19:02;;;;;;;25.60;6.90;;;;;;;-147.86;100.00;-14529.48;105658;1255;61074;-54
2024/02/28 02:21:31;;;;;;;35.70;6.00;;;;;;;-147.86;100.00;-13369.97;105663;1254;59651;-50
2024/02/28 02:23:59;;;;;;;25.00;5.60;;;;;;;-147.86;100.00;-12039.10;105686;1253;73022;-53
2024/02/28 02:26:26;;;;;;;31.80;7.10;;;;;;;-147.86;100.00;-10582.28;105688;1253;64067;-52
2024/02/28 02:28:54;;;;;;;22.50;7.10;;;;;;;-147.86;100.00;-9106.72;105639;1257;71224;-55
2024/02/28 02:31:22;;;;;;;28.10;7.40;;;;;;;-147.86;100.00;-7300.51;105632;1253;59925;-54
2024/02/28 02:33:49;;;;;;;26.00;7.60;;;;;;;-147.86;100.00;-5396.02;105600;1255;59630;-51
2024/02/28 02:36:17;;;;;;;18.00;7.20;;;;;;;-147.86;100.00;-3798.96;105685;1258;71823;-53
2024/02/28 02:38:45;;;;;;;28.90;7.60;;;;;;;-147.86;100.00;-2494.20;105704;1254;63150;-51
2024/02/28 02:41:13;;;;;;;25.90;8.50;;;;;;;-147.86;100.00;-1335.72;105766;1254;71448;-51
2024/02/28 02:43:40;;;;;;;30.50;9.70;;;;;;;-147.86;100.00;-261.69;105681;1255;59809;-54
2024/02/28 02:46:08;;;;;;;23.30;7.30;;;;;;;-147.86;100.00;655.38;105630;1256;60050;-52
2024/02/28 02:48:36;;;;;;;19.00;7.50;;;;;;;-147.86;100.00;1387.10;105609;1259;73099;-54
2024/02/28 02:51:04;;;;;;;28.20;7.50;;;;;;;-147.86;100.00;1881.84;105728;1253;63134;-51
2024/02/28 02:53:32;;;;;;;28.20;7.30;;;;;;;-147.86;100.00;2395.24;105645;1254;72072;-52
2024/02/28 02:55:59;;;;;;;22.70;8.00;;;;;;;-147.86;100.00;3015.29;105653;1258;59720;-54
2024/02/28 02:58:27;;;;;;;24.60;8.70;;;;;;;-147.86;100.00;3609.47;105655;1258;59957;-52
2024/02/28 03:00:55;;;;;;;27.70;9.40;;;;;;;-147.86;100.00;4115.73;105665;1253;71968;-49
2024/02/28 03:03:23;;;;;;;19.30;8.00;;;;;;;-147.86;100.00;4565.46;105678;1258;63502;-53
2024/02/28 03:05:51;;;;;;;21.30;7.90;;;;;;;-147.86;100.00;5128.85;105704;1258;72579;-51
2024/02/28 03:08:18;;;;;;;25.10;8.10;;;;;;;-147.86;100.00;5640.75;105635;1253;59696;-50
2024/02/28 03:10:46;;;;;;;36.90;8.00;;;;;;;-147.86;100.00;6225.64;105607;1253;59900;-56
2024/02/28 03:13:14;;;;;;;23.60;8.20;;;;;;;-147.86;100.00;6871.54;105700;1254;71788;-53
2024/02/28 03:15:42;;;;;;;21.80;8.00;;;;;;;-147.86;100.00;7736.38;105653;1253;64657;-52
2024/02/28 03:18:09;;;;;;;21.40;7.80;;;;;;;-147.86;100.00;8709.72;105672;1258;71358;-53
2024/02/28 03:20:39;;;;;;;31.70;7.80;;;;;;;-147.86;100.00;9815.69;105646;1256;59858;-49
2024/02/28 03:23:06;;;;;;;24.80;7.50;;;;;;;-147.86;100.00;11249.80;105636;1253;59553;-50
2024/02/28 03:25:34;;;;;;;17.10;7.60;;;;;;;-147.86;100.00;12827.73;105698;1253;71578;-50
2024/02/28 03:28:03;;;;;;;20.10;7.30;;;;;;;-147.86;100.00;14259.02;105712;1253;63297;-49
2024/02/28 03:30:30;;;;;;;23.50;7.90;;;;;;;-147.86;100.00;15423.35;105669;1258;71499;-53
2024/02/28 03:32:58;;;;;;;30.60;8.20;;;;;;;-147.86;100.00;16579.82;105659;1254;59842;-49
2024/02/28 03:35:26;;;;;;;23.50;8.40;;;;;;;-147.86;100.00;17637.06;105599;1253;60011;-51
2024/02/28 03:37:55;;;;;;;21.80;7.70;;;;;;;-147.86;100.00;18670.49;105413;1255;73040;-50
2024/02/28 03:40:22;;;;;;;37.20;10.10;;;;;;;-147.86;100.00;19628.65;105479;1253;65293;-50
2024/02/28 03:42:50;;;;;;;22.90;7.10;;;;;;;-147.86;100.00;20519.28;105636;1254;70449;-51
2024/02/28 03:45:19;;;;;;;27.30;7.50;;;;;;;-147.86;100.00;21128.18;105679;1256;59763;-53
2024/02/28 03:47:47;;;;;;;24.70;8.00;;;;;;;-147.86;100.00;21521.91;105724;1253;59584;-53
2024/02/28 03:50:15;;;;;;;28.70;8.80;;;;;;;-147.86;100.00;22055.38;105647;1253;72981;-55
2024/02/28 03:52:42;;;;;;;24.60;7.90;;;;;;;-147.86;100.00;22408.25;105655;1253;64332;-54
2024/02/28 03:55:10;;;;;;;32.20;8.80;;;;;;;-147.86;100.00;22992.97;105680;1256;71752;-54
2024/02/28 03:57:38;;;;;;;19.70;7.20;;;;;;;-147.86;100.00;23759.68;105634;1253;59727;-52
2024/02/28 04:00:08;;;;;;;24.50;8.50;;;;;;;-147.86;100.00;24155.15;105676;1253;59983;-52
2024/02/28 04:02:39;;;;;;;30.70;9.10;;;;;;;-147.86;100.00;23792.57;105644;1258;72810;-53
2024/02/28 05:02:06;;;;;;;;;;;;;;;-147.86;100.00;23246.87;102691;1292;601265;-50
2024/02/28 05:04:34;;;;;;;25.80;8.50;;;;;;;-147.86;100.00;21393.56;104917;1266;60809;-49
2024/02/28 06:02:30;;;;;;;;;;;;;;;-147.86;100.00;17317.61;102791;1291;600951;-49
2024/02/28 06:04:58;;;;;;;31.00;10.50;;;;;;;-147.86;100.00;10382.63;105204;1269;59237;-54
2024/02/28 06:07:26;;;;;;;40.20;10.40;;;;;;;-147.86;100.00;9771.70;105220;1268;59353;-55
2024/02/28 06:09:54;;;;;;;39.20;9.60;;;;;;;-147.86;100.00;7970.26;105202;1266;72213;-52
2024/02/28 06:12:22;;;;;;;25.40;8.90;;;;;;;-147.86;100.00;5985.09;105218;1265;65129;-53
2024/02/28 06:14:50;;;;;;;44.20;9.70;;;;;;;-147.86;100.00;4632.47;105522;1263;71909;-54
2024/02/28 06:17:18;;;;;;;32.50;9.50;;;;;;;-147.86;100.00;3488.09;105430;1260;263592;-54
2024/02/28 06:19:46;;;;;;;34.60;9.70;;;;;;;-147.86;100.00;2682.72;109306;1257;59062;-53
2024/02/28 06:22:14;;;;;;;26.70;10.00;;;;;;;-147.86;100.00;1896.13;109330;1256;72219;-55
2024/02/28 06:24:41;;;;;;;37.70;10.30;;;;;;;-147.86;100.00;1261.53;109315;1257;63914;-52
2024/02/28 06:27:12;;;;;;;29.60;9.20;;;;;;;-147.86;100.00;511.23;109268;1256;72641;-52
2024/02/28 06:29:40;;;;;;;30.40;9.40;;;;;;;-147.86;100.00;-522.74;109259;1256;59224;-52
2024/02/28 06:32:08;;;;;;;27.40;8.60;;;;;;;-147.86;100.00;-1307.15;109332;1255;60033;-49
2024/02/28 06:34:35;;;;;;;41.60;9.50;;;;;;;-147.86;100.00;-2171.13;109300;1256;71854;-54
2024/02/28 06:37:03;;;;;;;28.90;9.60;;;;;;;-147.86;100.00;-3201.68;109256;1257;63480;-55
2024/02/28 06:39:31;;;;;;;36.00;9.20;;;;;;;-147.86;100.00;-4483.39;109283;1257;72647;-52
2024/02/28 06:41:59;;;;;;;27.80;8.70;;;;;;;-147.86;100.00;-5977.73;109275;1256;59597;-55
2024/02/28 06:44:26;;;;;;;30.40;8.60;;;;;;;-147.86;100.00;-7331.17;109265;1257;58837;-52
2024/02/28 06:46:54;;;;;;;57.90;11.00;;;;;;;-147.86;100.00;-8535.00;109303;1257;73051;-49
2024/02/28 06:49:22;;;;;;;32.20;9.50;;;;;;;-147.86;100.00;-9733.42;109309;1256;63257;-49
2024/02/28 06:51:50;;;;;;;36.20;10.30;;;;;;;-147.86;100.00;-11267.41;109308;1257;72636;-51
2024/02/28 06:54:17;;;;;;;27.40;8.50;;;;;;;-147.86;100.00;-12897.67;109297;1256;59205;-55
2024/02/28 06:56:45;;;;;;;38.90;8.50;;;;;;;-147.86;100.00;-14609.02;109261;1257;60031;-50
2024/02/28 07:02:00;;;;;;;43.10;9.10;;;;;;;-147.86;100.00;-1601.97;102939;1290;599664;-49
2024/02/28 07:04:28;;;;;;;28.50;8.20;;;;;;;-147.86;100.00;-16498.49;105281;1262;59264;-50
2024/02/28 07:06:56;;;;;;;34.30;8.70;;;;;;;-147.86;100.00;-17609.17;105238;1266;59374;-53
2024/02/28 07:09:30;;;;;;;32.40;8.50;;;;;;;-147.86;100.00;-17609.17;105209;1267;72222;-49
2024/02/28 07:12:00;;;;;;;25.80;5.90;;;;;;;-147.86;100.00;-17609.17;105253;1262;65452;-50
2024/02/28 07:14:28;;;;;;;28.40;8.40;;;;;;;-147.86;100.00;-17609.17;105071;1263;244159;-50
2024/02/28 07:16:56;;;;;;;35.90;9.40;;;;;;;-147.86;100.00;-17609.17;105710;1254;59245;-51
2024/02/28 07:19:24;;;;;;;34.50;9.90;;;;;;;-147.86;100.00;-17609.17;105712;1254;59282;-55
2024/02/28 07:21:52;;;;;;;45.40;10.20;;;;;;;-147.86;100.00;-17609.17;105661;1254;72172;-51
2024/02/28 07:24:19;;;;;;;51.90;11.50;;;;;;;-147.86;100.00;-17609.17;105663;1254;63226;-50
2024/02/28 07:26:48;;;;;;;42.60;10.40;;;;;;;-147.86;100.00;-17609.17;105644;1260;72578;-50
2024/02/28 07:29:17;;;;;;;33.80;10.00;;;;;;;-147.86;100.00;-17609.17;105648;1260;63033;-53
2024/02/28 07:31:45;;;;;;;42.10;9.80;;;;;;;-147.86;100.00;-17609.17;105658;1260;59702;-52
2024/02/28 07:34:13;;;;;;;42.10;10.30;;;;;;;-147.86;100.00;-17609.17;105703;1260;71775;-56
2024/02/28 07:36:41;;;;;;;31.00;9.50;;;;;;;-147.86;100.00;-17609.17;105706;1254;63078;-50
2024/02/28 07:39:12;;;;;;;29.20;9.20;;;;;;;-147.86;100.00;-17609.17;105647;1254;73129;-54
2024/02/28 07:41:41;;;;;;;33.00;9.80;;;;;;;-147.86;100.00;-17609.17;105671;1254;60072;-51
2024/02/28 07:44:10;;;;;;;44.80;9.70;;;;;;;-147.86;100.00;-17609.17;105708;1254;60117;-52
2024/02/28 07:46:41;;;;;;;39.00;9.30;;;;;;;-147.86;100.00;-17609.17;105707;1254;74912;-52
2024/02/28 07:49:08;;;;;;;39.50;9.60;;;;;;;-147.86;100.00;-17609.17;105719;1254;65322;-53
2024/02/28 07:51:36;;;;;;;28.90;8.90;;;;;;;-147.86;100.00;-17609.17;105624;1254;73570;-54
2024/02/28 07:54:04;;;;;;;34.50;9.70;;;;;;;-147.86;100.00;-17609.17;105656;1257;59666;-52
2024/02/28 07:56:32;;;;;;;46.00;8.70;;;;;;;-147.86;100.00;-17609.17;105717;1254;59944;-58
2024/02/28 07:59:00;;;;;;;37.50;9.30;;;;;;;-147.86;100.00;-17609.17;105578;1256;73910;-54
2024/02/28 08:01:28;;;;;;;41.40;9.30;;;;;;;-147.86;100.00;-17609.17;105613;1260;64442;-56
2024/02/28 08:03:56;;;;;;;46.70;8.50;;;;;;;-147.86;100.00;-17609.17;105595;1257;72497;-57
2024/02/28 08:06:24;;;;;;;39.60;9.90;;;;;;;-147.86;100.00;-17609.17;105615;1257;59797;-53
2024/02/28 08:08:52;;;;;;;42.80;9.00;;;;;;;-147.86;100.00;-17609.17;105645;1261;59637;-54
2024/02/28 08:11:19;;;;;;;43.10;9.80;;;;;;;-147.86;100.00;-17609.17;105623;1257;73118;-55
2024/02/28 08:13:47;;;;;;;29.40;9.30;;;;;;;-147.86;100.00;-17609.17;105619;1260;64771;-52
2024/02/28 08:16:15;;;;;;;39.60;9.50;;;;;;;-147.86;100.00;-17609.17;105641;1260;71964;-57
2024/02/28 08:18:44;;;;;;;38.50;9.50;;;;;;;-147.86;100.00;-17609.17;105597;1260;62305;-51
2024/02/28 08:21:12;;;;;;;31.60;8.90;;;;;;;-147.86;100.00;-17609.17;105711;1255;60286;-51
2024/02/28 08:23:40;;;;;;;38.70;9.60;;;;;;;-147.86;100.00;-17609.17;105588;1257;75285;-52
2024/02/28 08:26:07;;;;;;;43.10;9.20;;;;;;;-147.86;100.00;-17609.17;105659;1260;63142;-55
2024/02/28 08:28:35;;;;;;;40.70;8.70;;;;;;;-147.86;100.00;-17559.25;105541;1263;72925;-55
2024/02/28 08:31:03;;;;;;;33.20;9.80;;;;;;;-147.86;100.00;-15189.07;105587;1261;59743;-53
2024/02/28 08:33:31;;;;;;;48.30;9.90;;;;;;;-147.86;100.00;-11879.62;105636;1256;59824;-51
2024/02/28 08:36:00;;;;;;;44.70;9.80;;;;;;;-147.86;100.00;-10446.42;105681;1255;75347;-52
2024/02/28 08:38:27;;;;;;;41.60;9.10;;;;;;;-147.86;100.00;-10594.72;105631;1260;64337;-53
2024/02/28 08:40:56;;;;;;;43.60;8.50;;;;;;;-147.86;99.00;-4607.02;105596;1257;74683;-57
2024/02/28 08:43:23;;;;;;;38.20;9.60;;;;;;;-147.86;97.53;5703.60;105620;1257;61941;-52
2024/02/28 08:45:51;;;;;;;46.30;10.40;;;;;;;-147.86;95.89;16592.49;105628;1256;61939;-53
2024/02/28 08:48:19;;;;;;;52.30;10.20;;;;;;;-147.86;97.08;17636.82;105643;1255;73479;-56
2024/02/28 08:50:47;;;;;;;52.20;10.40;;;;;;;-147.86;97.83;11068.21;105608;1257;64301;-53
2024/02/28 08:53:15;;;;;;;43.30;9.20;;;;;;;-147.86;98.07;9925.03;105604;1258;72831;-53
2024/02/28 08:55:42;;;;;;;42.30;10.00;;;;;;;-147.86;97.36;11068.44;105572;1263;59659;-53
2024/02/28 08:58:10;;;;;;;41.40;10.30;;;;;;;-147.86;96.61;16191.98;105660;1258;62124;-57
2024/02/28 09:00:38;;;;;;;44.90;9.80;;;;;;;-147.86;96.04;21422.03;105590;1256;75004;-53
2024/02/28 09:03:06;;;;;;;55.60;9.30;;;;;;;-147.86;95.35;27902.36;105640;1260;63776;-53
2024/02/28 09:05:34;;;;;;;35.70;9.70;;;;;;;-147.86;93.81;35428.55;105662;1256;73784;-54
2024/02/28 09:08:02;;;;;;;38.90;10.50;;;;;;;-147.86;88.57;44427.86;105626;1260;59660;-56
2024/02/28 09:10:34;;;;;;;45.30;10.20;;;;;;;-147.86;87.80;45746.40;105616;1260;61255;-49
2024/02/28 09:13:01;;;;;;;43.70;11.20;;;;;;;-147.86;88.98;45764.82;105654;1257;75305;-50
2024/02/28 09:15:29;;;;;;;37.30;9.50;;;;;;;-147.86;87.63;45813.80;105603;1260;64374;-54
2024/02/28 09:17:57;;;;;;;39.90;10.10;;;;;;;-147.86;86.54;45900.39;105596;1257;73649;-53
2024/02/28 09:20:25;;;;;;;42.00;10.30;;;;;;;-147.86;82.16;45942.32;105616;1260;59624;-55
2024/02/28 09:22:53;;;;;;;49.80;10.10;;;;;;;-147.86;82.32;45985.04;105635;1257;62308;-52
2024/02/28 09:25:21;;;;;;;38.80;9.70;;;;;;;-147.86;81.93;46026.57;105662;1258;73240;-51
2024/02/28 09:27:51;;;;;;;38.10;10.00;;;;;;;-147.86;79.98;46041.46;105615;1260;66234;-51
2024/02/28 09:30:19;;;;;;;35.90;9.40;;;;;;;-147.86;78.94;46063.40;105591;1257;75165;-52
2024/02/28 09:32:48;;;;;;;33.80;9.30;;;;;;;-147.86;77.46;46102.59;105595;1259;59656;-52
2024/02/28 09:35:16;;;;;;;63.20;11.10;;;;;;;-147.86;76.56;46126.89;105639;1260;60991;-53
2024/02/28 09:37:43;;;;;;;29.50;9.40;;;;;;;-147.86;74.79;46148.83;105592;1257;74033;-55
2024/02/28 09:40:12;;;;;;;45.30;10.90;;;;;;;-147.86;72.53;46175.87;105607;1258;64235;-51
2024/02/28 09:42:40;;;;;;;48.70;9.90;;;;;;;-147.86;71.17;46185.66;105630;1257;74704;-55
2024/02/28 09:45:10;;;;;;;36.40;10.40;;;;;;;-147.86;69.69;46210.75;105606;1258;59643;-52
2024/02/28 09:47:39;;;;;;;57.50;10.20;;;;;;;-147.86;70.39;46241.70;105622;1257;60032;-54
2024/02/28 09:50:07;;;;;;;66.20;10.70;;;;;;;-147.86;69.70;46271.49;105616;1258;72901;-56
2024/02/28 09:52:35;;;;;;;41.60;9.80;;;;;;;-147.86;68.78;46294.61;105613;1260;64261;-51
2024/02/28 09:55:04;;;;;;;50.20;9.40;;;;;;;-147.86;62.11;46327.52;105543;1257;72761;-49
2024/02/28 09:57:32;;;;;;;47.80;10.00;;;;;;;-147.86;62.18;46393.76;105672;1260;59681;-55
2024/02/28 10:00:00;;;;;;;33.30;9.20;;;;;;;-147.86;64.22;46443.92;105612;1260;60455;-52
2024/02/28 10:02:33;;;;;;;43.80;9.90;;;;;;;-147.86;62.93;46467.04;105592;1259;72708;-52
2024/02/28 10:05:03;;;;;;;37.70;8.90;;;;;;;-147.86;60.03;46539.15;105453;1263;65474;-51
2024/02/28 10:07:32;;;;;;;54.20;10.30;;;;;;;-147.86;58.76;46626.94;105412;1260;72459;-53
2024/02/28 10:09:59;;;;;;;44.80;9.20;;;;;;;-147.86;57.17;46706.11;105587;1262;60085;-56
2024/02/28 10:12:27;;;;;;;42.30;9.70;;;;;;;-147.86;55.66;46797.04;105589;1257;62199;-53
2024/02/28 10:14:55;;;;;;;40.00;9.40;;;;;;;-147.86;54.32;46859.35;105555;1260;72881;-51
2024/02/28 10:17:23;;;;;;;54.50;9.40;;;;;;;-147.86;54.05;46957.73;105594;1260;64338;-50
2024/02/28 10:19:54;;;;;;;53.80;10.40;;;;;;;-147.86;54.92;47002.80;105608;1257;72699;-53
2024/02/28 10:23:28;;;;;;;44.50;10.10;;;;;;;-147.86;54.67;46962.44;102725;1293;601084;-51
2024/02/28 10:25:56;;;;;;;51.20;9.60;;;;;;;-147.86;53.59;47130.58;104808;1271;60008;-49
2024/02/28 10:28:25;;;;;;;45.20;9.30;;;;;;;-147.86;51.08;47234.46;104928;1266;60536;-50
2024/02/28 10:30:53;;;;;;;57.80;9.60;;;;;;;-147.86;50.09;47359.11;105219;1263;73238;-54
2024/02/28 10:33:22;;;;;;;41.10;9.00;;;;;;;-147.86;49.78;47460.63;105229;1267;64287;-53
2024/02/28 10:35:51;;;;;;;54.30;8.90;;;;;;;-147.86;49.54;47544.52;105204;1262;73235;-51
2024/02/28 10:38:19;;;;;;;46.50;9.40;;;;;;;-147.86;49.31;47637.82;105103;1264;256954;-53
2024/02/28 10:40:47;;;;;;;48.90;9.30;;;;;;;-147.86;49.94;47718.19;105257;1260;61982;-49
2024/02/28 10:43:16;;;;;;;60.10;9.80;;;;;;;-147.86;49.86;47779.34;105328;1263;74281;-51
2024/02/28 10:45:44;;;;;;;54.00;10.60;;;;;;;-147.86;49.99;47838.93;105469;1262;65036;-55
2024/02/28 10:48:32;;;;;;;56.70;10.90;;;;;;;-147.86;49.06;47898.52;105258;1263;72574;-55
2024/02/28 10:51:02;;;;;;;50.40;10.50;;;;;;;-147.86;48.06;47950.66;105254;1264;59641;-51
2024/02/28 10:53:38;;;;;;;35.70;10.20;;;;;;;-147.86;47.19;48026.71;105272;1260;62316;-48
2024/02/28 10:56:06;;;;;;;44.70;9.30;;;;;;;-147.86;47.46;48079.26;105302;1260;72900;-51
2024/02/28 10:58:39;;;;;;;37.60;10.00;;;;;;;-147.86;46.45;48134.14;105295;1260;64312;-52
2024/02/28 11:01:08;;;;;;;53.60;10.30;;;;;;;-147.86;46.03;48198.45;105239;1259;72493;-51
2024/02/28 11:03:36;;;;;;;38.80;8.90;;;;;;;-147.86;45.92;48238.43;105214;1260;59752;-54
2024/02/28 11:06:04;;;;;;;32.50;9.50;;;;;;;-147.86;46.04;48274.12;105169;1260;61659;-51
2024/02/28 11:08:34;;;;;;;42.20;9.70;;;;;;;-147.86;45.44;48300.38;105244;1260;75133;-50
2024/02/28 11:11:06;;;;;;;39.20;10.10;;;;;;;-147.86;46.81;48330.18;105254;1264;64771;-48
2024/02/28 11:13:34;;;;;;;42.00;9.90;;;;;;;-147.86;47.64;48339.98;105256;1260;72939;-54
2024/02/28 11:16:09;;;;;;;36.00;10.20;;;;;;;-147.86;47.20;48362.73;105245;1264;60121;-49
2024/02/28 11:18:48;;;;;;;42.60;10.20;;;;;;;-147.86;47.17;48378.80;105260;1261;59824;-54
2024/02/28 11:21:16;;;;;;;49.70;10.30;;;;;;;-147.86;46.44;48418.79;105257;1264;72901;-53
2024/02/28 11:23:50;;;;;;;36.90;10.50;;;;;;;-147.86;45.53;48451.34;105242;1265;64903;-52
2024/02/28 11:26:18;;;;;;;48.90;10.80;;;;;;;-147.86;45.61;48477.61;105220;1264;72388;-52
2024/02/28 12:01:04;;;;;;;38.00;9.50;;;;;;;-147.86;43.72;48315.75;102714;1294;600344;-52
2024/02/28 12:03:33;;;;;;;42.70;9.40;;;;;;;-147.86;42.25;48727.78;105066;1267;61182;-50
2024/02/28 12:06:01;;;;;;;45.70;12.10;;;;;;;-147.86;42.12;48733.66;105008;1263;61801;-51
2024/02/28 12:08:29;;;;;;;52.40;15.00;;;;;;;-147.86;42.69;48723.86;104983;1263;72767;-52
2024/02/28 12:11:07;;;;;;;48.70;9.10;;;;;;;-147.86;42.85;48730.13;104855;1272;64544;-54
2024/02/28 12:13:35;;;;;;;56.10;14.00;;;;;;;-147.86;42.11;48741.11;104856;1269;259614;-52
2024/02/28 12:16:03;;;;;;;59.10;18.60;;;;;;;-147.86;42.07;48743.07;105205;1266;59258;-55
2024/02/28 12:18:31;;;;;;;40.30;11.00;;;;;;;-147.86;42.28;48733.66;105259;1266;59549;-54
2024/02/28 12:20:59;;;;;;;58.40;18.30;;;;;;;-147.86;42.37;48710.52;105175;1263;74689;-57
2024/02/28 12:23:27;;;;;;;33.30;11.40;;;;;;;-147.86;43.38;48707.77;105188;1266;66918;-55
2024/02/28 12:25:54;;;;;;;30.10;9.20;;;;;;;-147.86;43.22;48699.15;105196;1263;74524;-54
2024/02/28 12:28:22;;;;;;;37.10;9.50;;;;;;;-147.86;43.28;48706.99;105182;1265;59998;-56
2024/02/28 12:30:53;;;;;;;38.60;8.80;;;;;;;-147.86;43.62;48697.98;105205;1263;59755;-56
2024/02/28 12:33:22;;;;;;;33.30;8.60;;;;;;;-147.86;44.03;48717.58;105161;1261;74866;-51
2024/02/28 12:35:51;;;;;;;44.90;9.20;;;;;;;-147.86;42.93;48730.91;105430;1263;66806;-55
2024/02/28 12:38:19;;;;;;;41.00;9.30;;;;;;;-147.86;42.61;48743.46;105415;1263;74893;-52
2024/02/28 12:40:47;;;;;;;39.90;9.40;;;;;;;-147.86;43.36;48750.13;105363;1262;59712;-50
2024/02/28 12:43:15;;;;;;;34.60;9.70;;;;;;;-147.86;43.29;48763.86;105422;1260;59895;-52
2024/02/28 13:02:32;;;;;;;35.10;8.40;;;;;;;-147.86;41.74;48437.70;102772;1295;600440;-53
2024/02/28 13:05:00;;;;;;;27.90;7.90;;;;;;;-147.86;40.86;48861.89;104859;1271;61030;-54
2024/02/28 13:07:29;;;;;;;39.30;8.70;;;;;;;-147.86;40.51;48855.22;105160;1264;59894;-51
2024/02/28 13:09:57;;;;;;;38.90;8.50;;;;;;;-147.86;40.25;48881.88;105265;1261;74919;-55
2024/02/28 13:12:25;;;;;;;36.80;8.30;;;;;;;-147.86;40.02;48866.59;105287;1266;66830;-54
2024/02/28 13:14:54;;;;;;;27.70;7.60;;;;;;;-147.86;40.26;48876.39;105235;1266;74543;-55
2024/02/28 13:17:22;;;;;;;29.40;8.00;;;;;;;-147.86;39.78;48892.08;105241;1261;267623;-50
2024/02/28 13:19:52;;;;;;;24.80;8.20;;;;;;;-147.86;40.34;48890.51;105549;1263;61871;-58
2024/02/28 13:22:20;;;;;;;38.10;9.20;;;;;;;-147.86;40.70;48906.98;105493;1263;73180;-53
2024/02/28 13:24:48;;;;;;;33.50;7.70;;;;;;;-147.86;40.70;48927.38;105410;1260;67443;-55
2024/02/28 13:27:16;;;;;;;29.60;8.70;;;;;;;-147.86;40.22;48925.80;105561;1259;74443;-56
2024/02/28 13:29:44;;;;;;;44.50;8.90;;;;;;;-147.86;39.76;48925.02;105523;1261;61559;-57
2024/02/28 13:32:11;;;;;;;42.20;9.40;;;;;;;-147.86;39.73;48897.18;105424;1260;62533;-53
2024/02/28 13:34:40;;;;;;;36.50;9.10;;;;;;;-147.86;39.65;48905.41;105916;1251;75207;-54
2024/02/28 13:37:08;;;;;;;44.80;8.80;;;;;;;-147.86;40.32;48897.57;105963;1256;64808;-54
2024/02/28 13:39:36;;;;;;;50.60;8.70;;;;;;;-147.86;40.27;48902.67;105979;1257;72664;-52
2024/02/28 13:42:06;;;;;;;41.50;8.50;;;;;;;-147.86;40.23;48907.77;106005;1251;59647;-52
2024/02/28 13:44:34;;;;;;;29.40;8.10;;;;;;;-147.86;40.50;48899.53;105988;1256;61125;-53
2024/02/28 13:47:03;;;;;;;39.30;8.10;;;;;;;-147.86;40.60;48901.10;105953;1251;72879;-50
2024/02/28 13:49:30;;;;;;;37.00;8.70;;;;;;;-147.86;40.71;48915.61;105991;1252;65444;-51
2024/02/28 13:51:58;;;;;;;30.90;7.70;;;;;;;-147.86;39.89;48909.73;105943;1251;72525;-51
2024/02/28 13:54:26;;;;;;;32.50;7.80;;;;;;;-147.86;40.43;48901.88;105969;1257;60075;-55
2024/02/28 13:56:54;;;;;;;38.90;9.00;;;;;;;-147.86;40.62;48893.65;105952;1251;59893;-51
2024/02/28 13:59:22;;;;;;;37.40;7.60;;;;;;;-147.86;40.99;48895.22;105915;1254;73134;-51
2024/02/28 14:01:50;;;;;;;34.90;8.50;;;;;;;-147.86;41.29;48901.88;105833;1257;63014;-54
2024/02/28 14:04:19;;;;;;;33.60;7.50;;;;;;;-147.86;41.29;48914.04;105886;1254;72732;-53
2024/02/28 14:06:46;;;;;;;33.10;8.70;;;;;;;-147.86;41.28;48918.35;105924;1256;59826;-54
2024/02/28 14:09:14;;;;;;;37.00;8.30;;;;;;;-147.86;40.61;48926.59;105851;1255;62120;-52
2024/02/28 14:11:42;;;;;;;35.00;7.40;;;;;;;-147.86;40.38;48906.98;105835;1254;72658;-52
2024/02/28 14:14:11;;;;;;;33.10;7.10;;;;;;;-147.86;40.57;48904.63;105818;1254;63158;-50
2024/02/28 14:16:39;;;;;;;33.60;7.70;;;;;;;-147.86;40.90;48907.38;105910;1257;74845;-57
2024/02/28 14:19:07;;;;;;;44.50;7.50;;;;;;;-147.86;40.36;48932.47;105820;1257;60303;-55
2024/02/28 14:21:34;;;;;;;62.70;9.60;;;;;;;-147.86;40.46;48941.49;105925;1254;60319;-57
2024/02/28 14:24:02;;;;;;;40.10;8.10;;;;;;;-147.86;40.16;48971.29;105888;1257;75170;-56
2024/02/28 14:26:30;;;;;;;31.80;8.00;;;;;;;-147.86;39.06;49003.84;105848;1258;64344;-53
2024/02/28 14:28:58;;;;;;;43.50;8.40;;;;;;;-147.86;38.26;49021.10;105849;1259;74744;-57
2024/02/28 14:31:26;;;;;;;40.80;8.50;;;;;;;-147.86;38.32;49047.77;105824;1260;59889;-54
2024/02/28 14:33:54;;;;;;;35.80;8.00;;;;;;;-147.86;37.70;49083.06;105901;1256;61071;-53
2024/02/28 14:36:23;;;;;;;28.10;7.00;;;;;;;-147.86;36.54;49082.27;105829;1254;75066;-55